createdAt,value
2022-08-10T00:00:57.128Z,101044.50
2022-08-10T00:03:24.910Z,101042.80
2022-08-10T00:05:54.270Z,101043.23
2022-08-10T00:08:24.352Z,101040.63
2022-08-10T00:10:52.993Z,101038.16
2022-08-10T00:13:39.197Z,101036.37
2022-08-10T00:16:07.067Z,101031.79
2022-08-10T00:18:36.308Z,101027.01
2022-08-10T00:21:06.965Z,101031.91
2022-08-10T00:23:35.569Z,101033.44
2022-08-10T00:26:04.130Z,101032.67
2022-08-10T00:28:32.063Z,101032.13
2022-08-10T00:30:59.827Z,101033.38
2022-08-10T00:33:27.606Z,101038.36
2022-08-10T00:35:55.395Z,101038.33
2022-08-10T00:38:23.269Z,101038.54
2022-08-10T00:40:51.098Z,101041.45
2022-08-10T00:43:23.241Z,101043.02
2022-08-10T00:45:59.514Z,101036.29
2022-08-10T00:48:30.583Z,101038.20
2022-08-10T00:50:59.212Z,101038.59
2022-08-10T00:53:27.863Z,101042.00
2022-08-10T00:57:14.519Z,101042.57
2022-08-10T00:58:44.661Z,101042.14
2022-08-10T01:02:10.009Z,101037.89
2022-08-10T01:04:57.228Z,101035.33
2022-08-10T01:07:04.887Z,101034.55
2022-08-10T01:09:40.404Z,101033.16
2022-08-10T01:12:37.442Z,101038.05
2022-08-10T01:15:11.135Z,101032.74
2022-08-10T01:17:51.503Z,101034.15
2022-08-10T01:20:30.965Z,101035.66
2022-08-10T01:23:26.412Z,101028.63
2022-08-10T01:26:30.443Z,101029.65
2022-08-10T01:29:17.721Z,101035.59
2022-08-10T01:31:50.483Z,101034.69
2022-08-10T01:34:23.331Z,101037.72
2022-08-10T01:36:56.514Z,101035.20
2022-08-10T01:39:28.604Z,101030.79
2022-08-10T01:42:00.023Z,101031.64
2022-08-10T01:44:33.430Z,101033.56
2022-08-10T01:47:23.795Z,101032.63
2022-08-10T01:49:59.223Z,101031.60
2022-08-10T01:52:29.607Z,101038.17
2022-08-10T01:54:59.041Z,101033.50
2022-08-10T01:57:31.149Z,101034.41
2022-08-10T02:00:02.906Z,101034.17
2022-08-10T02:02:36.128Z,101035.40
2022-08-10T02:05:07.225Z,101036.75
2022-08-10T02:07:37.966Z,101039.27
2022-08-10T02:10:12.389Z,101042.02
2022-08-10T02:12:43.016Z,101035.57
2022-08-10T02:15:17.452Z,101034.23
2022-08-10T02:17:59.431Z,101039.03
2022-08-10T02:20:36.277Z,101042.65
2022-08-10T02:23:08.293Z,101042.93
2022-08-10T02:25:41.609Z,101045.48
2022-08-10T02:28:27.454Z,101049.02
2022-08-10T02:31:01.823Z,101052.33
2022-08-10T02:33:31.525Z,101054.63
2022-08-10T02:36:03.182Z,101062.25
2022-08-10T02:38:57.456Z,101057.08
2022-08-10T02:45:12.481Z,101051.81
2022-08-10T02:45:26.035Z,101054.25
2022-08-10T02:47:25.080Z,101054.76
2022-08-10T02:50:00.103Z,101054.64
2022-08-10T02:52:37.992Z,101051.72
2022-08-10T02:55:17.844Z,101053.69
2022-08-10T02:58:17.299Z,101053.94
2022-08-10T03:00:44.791Z,101054.92
2022-08-10T03:03:18.970Z,101052.85
2022-08-10T03:05:49.296Z,101054.24
2022-08-10T03:08:21.373Z,101053.23
2022-08-10T03:10:50.825Z,101052.08
2022-08-10T03:13:21.009Z,101049.45
2022-08-10T03:15:51.038Z,101047.21
2022-08-10T03:18:23.971Z,101052.38
2022-08-10T03:20:53.792Z,101052.54
2022-08-10T03:23:23.817Z,101054.97
2022-08-10T03:25:55.910Z,101057.95
2022-08-10T03:28:26.789Z,101060.83
2022-08-10T03:30:55.807Z,101060.88
2022-08-10T03:33:26.307Z,101062.83
2022-08-10T03:36:40.074Z,101065.16
2022-08-10T03:38:45.378Z,101063.95
2022-08-10T03:41:16.170Z,101067.19
2022-08-10T03:43:47.370Z,101067.77
2022-08-10T03:46:18.234Z,101066.09
2022-08-10T03:48:50.197Z,101064.84
2022-08-10T03:51:21.525Z,101063.31
2022-08-10T03:54:02.818Z,101063.38
2022-08-10T03:56:37.183Z,101063.91
2022-08-10T03:59:06.717Z,101066.31
2022-08-10T04:02:52.384Z,101069.55
2022-08-10T04:04:25.059Z,101075.33
2022-08-10T04:06:55.790Z,101079.73
2022-08-10T04:09:29.663Z,101084.44
2022-08-10T04:12:15.333Z,101086.07
2022-08-10T04:14:51.327Z,101087.13
2022-08-10T04:17:56.655Z,101088.38
2022-08-10T04:20:17.368Z,101086.08
2022-08-10T04:22:49.732Z,101086.89
2022-08-10T04:25:19.092Z,101090.14
2022-08-10T04:27:48.332Z,101089.02
2022-08-10T04:30:16.859Z,101090.42
2022-08-10T04:32:48.838Z,101095.04
2022-08-10T04:35:20.006Z,101092.33
2022-08-10T04:37:49.671Z,101096.56
2022-08-10T04:40:28.518Z,101096.48
2022-08-10T04:43:12.383Z,101095.94
2022-08-10T04:45:50.610Z,101092.52
2022-08-10T04:48:42.688Z,101091.46
2022-08-10T04:51:17.835Z,101094.20
2022-08-10T04:54:03.189Z,101093.63
2022-08-10T04:56:35.455Z,101094.45
2022-08-10T04:59:04.893Z,101094.76
2022-08-10T05:01:37.759Z,101094.41
2022-08-10T05:04:35.660Z,101094.21
2022-08-10T05:07:08.713Z,101094.54
2022-08-10T05:10:01.193Z,101092.52
2022-08-10T05:12:25.489Z,101099.73
2022-08-10T05:14:54.613Z,101099.54
2022-08-10T05:17:23.855Z,101105.55
2022-08-10T05:20:01.814Z,101109.27
2022-08-10T05:22:30.576Z,101111.04
2022-08-10T05:24:58.518Z,101111.16
2022-08-10T05:27:26.239Z,101111.77
2022-08-10T05:30:01.545Z,101117.69
2022-08-10T05:32:31.705Z,101115.66
2022-08-10T05:34:59.518Z,101117.59
2022-08-10T05:38:12.803Z,101112.41
2022-08-10T05:40:20.740Z,101118.63
2022-08-10T05:42:48.586Z,101115.55
2022-08-10T05:45:20.989Z,101116.63
2022-08-10T05:48:57.923Z,101120.20
2022-08-10T05:50:37.282Z,101118.84
2022-08-10T05:53:58.954Z,101125.06
2022-08-10T05:55:53.914Z,101122.89
2022-08-10T05:58:22.179Z,101125.31
2022-08-10T06:00:53.612Z,101124.85
2022-08-10T06:03:29.672Z,101124.14
2022-08-10T06:06:01.570Z,101121.25
2022-08-10T06:08:33.380Z,101119.80
2022-08-10T06:12:35.259Z,101121.56
2022-08-10T06:14:16.059Z,101118.42
2022-08-10T06:16:46.241Z,101122.98
2022-08-10T06:19:14.849Z,101122.18
2022-08-10T06:21:55.370Z,101121.13
2022-08-10T06:24:31.001Z,101116.40
2022-08-10T06:26:59.804Z,101116.80
2022-08-10T06:29:32.587Z,101118.73
2022-08-10T06:32:02.665Z,101123.02
2022-08-10T06:34:35.073Z,101123.45
2022-08-10T06:37:05.993Z,101122.95
2022-08-10T06:39:36.339Z,101124.92
2022-08-10T06:42:16.242Z,101127.61
2022-08-10T06:44:53.515Z,101127.80
2022-08-10T06:47:25.625Z,101126.58
2022-08-10T06:50:00.087Z,101133.16
2022-08-10T06:52:32.756Z,101129.67
2022-08-10T06:55:00.701Z,101127.16
2022-08-10T06:57:32.237Z,101125.77
2022-08-10T07:00:02.832Z,101122.42
2022-08-10T07:02:40.667Z,101124.80
2022-08-10T07:05:15.802Z,101126.15
2022-08-10T07:07:45.597Z,101124.95
2022-08-10T07:10:18.285Z,101126.83
2022-08-10T07:12:47.489Z,101125.11
2022-08-10T07:15:17.602Z,101128.36
2022-08-10T07:17:45.891Z,101123.70
2022-08-10T07:20:18.077Z,101120.41
2022-08-10T07:23:50.721Z,101119.77
2022-08-10T07:25:39.168Z,101120.66
2022-08-10T07:28:08.008Z,101120.11
2022-08-10T07:30:39.075Z,101113.74
2022-08-10T07:33:07.132Z,101116.42
2022-08-10T07:35:42.246Z,101120.84
2022-08-10T07:38:17.603Z,101124.64
2022-08-10T07:40:47.099Z,101121.98
2022-08-10T07:43:17.498Z,101121.30
2022-08-10T07:45:46.436Z,101126.80
2022-08-10T07:48:18.848Z,101117.16
2022-08-10T07:50:48.902Z,101118.94
2022-08-10T07:53:24.434Z,101117.48
2022-08-10T07:56:01.712Z,101120.18
2022-08-10T07:58:35.339Z,101123.23
2022-08-10T08:01:07.350Z,101116.48
2022-08-10T08:03:35.332Z,101120.70
2022-08-10T08:06:11.593Z,101122.80
2022-08-10T08:08:43.720Z,101118.05
2022-08-10T08:11:26.014Z,101117.83
2022-08-10T08:13:56.805Z,101117.23
2022-08-10T08:16:25.129Z,101116.75
2022-08-10T08:19:26.411Z,101114.46
2022-08-10T08:24:04.978Z,101114.91
2022-08-10T08:24:37.046Z,101118.23
2022-08-10T08:27:07.069Z,101113.17
2022-08-10T08:29:37.251Z,101114.48
2022-08-10T08:32:06.832Z,101107.98
2022-08-10T08:34:38.599Z,101110.40
2022-08-10T08:37:09.885Z,101115.83
2022-08-10T08:39:40.941Z,101116.77
2022-08-10T08:42:27.736Z,101109.71
2022-08-10T08:45:15.478Z,101103.63
2022-08-10T08:48:18.839Z,101099.73
2022-08-10T08:50:59.674Z,101099.66
2022-08-10T08:54:01.307Z,101096.84
2022-08-10T08:56:40.382Z,101093.83
2022-08-10T08:59:23.314Z,101101.33
2022-08-10T09:02:01.656Z,101097.13
2022-08-10T09:04:55.609Z,101094.45
2022-08-10T09:08:03.225Z,101088.15
2022-08-10T09:10:52.541Z,101080.85
2022-08-10T09:13:27.054Z,101086.55
2022-08-10T09:16:13.870Z,101088.56
2022-08-10T09:18:49.989Z,101097.65
2022-08-10T09:21:26.942Z,101096.06
2022-08-10T09:24:04.355Z,101095.48
2022-08-10T09:26:49.282Z,101093.65
2022-08-10T09:29:24.189Z,101085.70
2022-08-10T09:36:13.859Z,101094.92
2022-08-10T09:36:27.929Z,101093.04
2022-08-10T09:38:06.803Z,101086.59
2022-08-10T09:41:00.608Z,101081.88
2022-08-10T09:43:45.067Z,101083.92
2022-08-10T09:46:27.722Z,101085.29
2022-08-10T09:49:05.249Z,101081.08
2022-08-10T09:51:54.588Z,101086.56
2022-08-10T09:54:39.053Z,101080.75
2022-08-10T09:57:55.100Z,101083.93
2022-08-10T10:00:09.649Z,101077.83
2022-08-10T10:02:51.725Z,101077.56
2022-08-10T10:05:36.551Z,101068.77
2022-08-10T10:08:13.974Z,101072.11
2022-08-10T10:10:55.797Z,101064.33
2022-08-10T10:14:00.161Z,101060.53
2022-08-10T10:16:51.721Z,101059.30
2022-08-10T10:19:30.932Z,101062.85
2022-08-10T10:22:21.294Z,101063.41
2022-08-10T10:24:56.672Z,101055.56
2022-08-10T10:27:35.961Z,101049.36
2022-08-10T10:30:08.659Z,101050.61
2022-08-10T10:32:48.505Z,101050.40
2022-08-10T10:35:23.881Z,101050.20
2022-08-10T10:38:02.853Z,101040.40
2022-08-10T10:40:45.449Z,101045.59
2022-08-10T10:43:30.862Z,101048.58
2022-08-10T10:46:23.095Z,101040.80
2022-08-10T10:49:03.332Z,101035.14
2022-08-10T10:51:38.219Z,101029.78
2022-08-10T10:54:10.436Z,101033.71
2022-08-10T10:56:56.509Z,101026.92
2022-08-10T10:59:56.374Z,101026.60
2022-08-10T11:02:40.797Z,101022.06
2022-08-10T11:05:19.308Z,101015.91
2022-08-10T11:07:55.628Z,101012.13
2022-08-10T11:10:32.596Z,101013.60
2022-08-10T11:14:24.597Z,101016.40
2022-08-10T11:16:23.872Z,101004.70
2022-08-10T11:18:58.642Z,101001.58
2022-08-10T11:21:39.734Z,100992.23
2022-08-10T11:24:47.705Z,100994.48
2022-08-10T11:27:17.431Z,100997.63
2022-08-10T11:30:00.378Z,100998.81
2022-08-10T11:32:40.787Z,101003.63
2022-08-10T11:35:19.319Z,100996.16
2022-08-10T11:38:28.488Z,100987.55
2022-08-10T11:40:49.678Z,100987.25
2022-08-10T11:43:21.932Z,100989.36
2022-08-10T11:45:55.462Z,100983.91
2022-08-10T11:48:53.461Z,100980.33
2022-08-10T11:51:30.373Z,100969.49
2022-08-10T11:54:07.358Z,100973.92
2022-08-10T11:56:44.583Z,100974.31
2022-08-10T11:59:31.261Z,100974.42
2022-08-10T12:01:59.574Z,100970.27
2022-08-10T12:04:29.849Z,100966.33
2022-08-10T12:06:59.739Z,100968.98
2022-08-10T12:10:10.083Z,100963.35
2022-08-10T12:12:19.057Z,100964.83
2022-08-10T12:14:55.235Z,100969.45
2022-08-10T12:17:28.913Z,100969.83
2022-08-10T12:20:04.696Z,100964.95
2022-08-10T12:22:38.419Z,100960.42
2022-08-10T12:25:11.792Z,100956.57
2022-08-10T12:28:10.654Z,100952.52
2022-08-10T12:30:45.947Z,100946.22
2022-08-10T12:33:26.327Z,100939.05
2022-08-10T12:36:18.027Z,100937.40
2022-08-10T12:38:56.942Z,100931.35
2022-08-10T12:41:43.720Z,100931.08
2022-08-10T12:44:19.433Z,100923.10
2022-08-10T12:46:56.994Z,100918.73
2022-08-10T12:49:32.001Z,100915.87
2022-08-10T12:52:05.918Z,100916.60
2022-08-10T12:54:36.438Z,100920.86
2022-08-10T12:57:09.923Z,100914.65
2022-08-10T12:59:43.376Z,100911.09
2022-08-10T13:02:23.205Z,100908.69
2022-08-10T13:04:54.475Z,100901.48
2022-08-10T13:08:24.122Z,100900.00
2022-08-10T13:10:17.484Z,100898.64
2022-08-10T13:12:50.402Z,100905.72
2022-08-10T13:15:45.714Z,100897.14
2022-08-10T13:18:18.363Z,100892.84
2022-08-10T13:20:51.421Z,100885.55
2022-08-10T13:23:23.621Z,100886.45
2022-08-10T13:25:54.836Z,100883.32
2022-08-10T13:28:37.220Z,100882.13
2022-08-10T13:31:11.712Z,100874.14
2022-08-10T13:34:38.906Z,100876.61
2022-08-10T13:36:39.939Z,100875.65
2022-08-10T13:39:10.180Z,100870.11
2022-08-10T13:41:42.091Z,100865.19
2022-08-10T13:44:13.977Z,100862.40
2022-08-10T13:46:49.783Z,100858.41
2022-08-10T13:49:18.712Z,100847.10
2022-08-10T13:51:57.198Z,100851.24
2022-08-10T13:54:28.743Z,100847.25
2022-08-10T13:56:57.719Z,100848.38
2022-08-10T14:00:36.933Z,100845.58
2022-08-10T14:02:24.681Z,100849.67
2022-08-10T14:04:54.400Z,100849.66
2022-08-10T14:07:23.456Z,100850.77
2022-08-10T14:09:53.520Z,100846.30
2022-08-10T14:12:32.246Z,100848.19
2022-08-10T14:15:04.793Z,100842.83
2022-08-10T14:17:34.637Z,100840.95
2022-08-10T14:20:03.527Z,100830.33
2022-08-10T14:22:34.353Z,100832.20
2022-08-10T14:28:35.753Z,100813.20
2022-08-10T14:31:05.966Z,100817.70
2022-08-10T14:33:36.026Z,100812.87
2022-08-10T14:36:20.314Z,100813.11
2022-08-10T14:38:55.832Z,100810.41
2022-08-10T14:42:02.763Z,100809.60
2022-08-10T14:44:18.803Z,100800.82
2022-08-10T14:46:51.589Z,100806.06
2022-08-10T14:49:26.565Z,100800.29
2022-08-10T14:51:59.746Z,100797.31
2022-08-10T14:54:30.126Z,100802.34
2022-08-10T14:57:11.534Z,100801.80
2022-08-10T15:00:23.286Z,100801.14
2022-08-10T15:02:55.924Z,100799.42
2022-08-10T15:05:37.535Z,100799.06
2022-08-10T15:08:10.649Z,100801.40
2022-08-10T15:10:39.085Z,100806.66
2022-08-10T15:13:34.581Z,100798.26
2022-08-10T15:16:12.487Z,100794.52
2022-08-10T15:18:58.555Z,100794.67
2022-08-10T15:21:35.314Z,100789.98
2022-08-10T15:24:36.683Z,100793.11
2022-08-10T15:27:08.883Z,100789.00
2022-08-10T15:29:57.640Z,100785.99
2022-08-10T15:32:56.218Z,100783.14
2022-08-10T15:35:45.555Z,100783.16
2022-08-10T15:38:18.324Z,100779.80
2022-08-10T15:40:53.226Z,100783.30
2022-08-10T15:43:25.720Z,100782.69
2022-08-10T15:46:01.534Z,100782.61
2022-08-10T15:48:40.351Z,100778.98
2022-08-10T15:51:17.898Z,100776.08
2022-08-10T15:53:50.522Z,100769.41
2022-08-10T15:56:28.266Z,100772.92
2022-08-10T15:59:08.573Z,100767.55
2022-08-10T16:02:14.761Z,100766.67
2022-08-10T16:04:35.943Z,100762.09
2022-08-10T16:07:11.249Z,100763.35
2022-08-10T16:10:11.093Z,100763.59
2022-08-10T16:12:38.673Z,100766.63
2022-08-10T16:15:11.817Z,100765.44
2022-08-10T16:17:55.674Z,100761.64
2022-08-10T16:20:31.977Z,100763.04
2022-08-10T16:23:03.071Z,100755.82
2022-08-10T16:25:51.601Z,100752.56
2022-08-10T16:28:23.584Z,100749.58
2022-08-10T16:30:54.828Z,100748.86
2022-08-10T16:33:28.075Z,100745.41
2022-08-10T16:36:17.550Z,100738.27
2022-08-10T16:38:49.179Z,100740.52
2022-08-10T16:42:00.663Z,100737.57
2022-08-10T16:44:11.509Z,100735.31
2022-08-10T16:46:44.227Z,100733.23
2022-08-10T16:49:12.902Z,100732.26
2022-08-10T16:51:45.247Z,100730.63
2022-08-10T16:54:16.281Z,100730.23
2022-08-10T16:56:49.288Z,100728.27
2022-08-10T16:59:24.358Z,100729.36
2022-08-10T17:01:54.719Z,100729.79
2022-08-10T17:04:23.937Z,100730.02
2022-08-10T17:06:57.745Z,100734.06
2022-08-10T17:09:28.506Z,100737.11
2022-08-10T17:11:59.016Z,100734.92
2022-08-10T17:14:28.837Z,100732.83
2022-08-10T17:16:59.610Z,100733.63
2022-08-10T17:19:27.792Z,100738.63
2022-08-10T17:21:58.375Z,100733.54
2022-08-10T17:24:29.507Z,100737.55
2022-08-10T17:27:01.427Z,100733.02
2022-08-10T17:30:04.713Z,100738.63
2022-08-10T17:32:44.337Z,100741.29
2022-08-10T17:35:22.478Z,100737.04
2022-08-10T17:37:57.584Z,100741.82
2022-08-10T17:40:28.310Z,100740.89
2022-08-10T17:42:55.970Z,100743.92
2022-08-10T17:45:48.654Z,100738.88
2022-08-10T17:48:16.019Z,100738.34
2022-08-10T17:50:49.689Z,100738.00
2022-08-10T17:53:21.332Z,100740.41
2022-08-10T17:55:55.423Z,100742.64
2022-08-10T17:58:26.387Z,100742.66
2022-08-10T18:01:38.456Z,100742.30
2022-08-10T18:03:53.829Z,100743.94
2022-08-10T18:06:22.969Z,100743.87
2022-08-10T18:08:56.594Z,100743.15
2022-08-10T18:11:27.980Z,100748.46
2022-08-10T18:14:01.426Z,100745.34
2022-08-10T18:16:32.529Z,100742.48
2022-08-10T18:19:06.401Z,100743.79
2022-08-10T18:21:37.751Z,100747.94
2022-08-10T18:24:15.648Z,100746.87
2022-08-10T18:26:47.349Z,100749.91
2022-08-10T18:29:19.436Z,100752.14
2022-08-10T18:31:49.305Z,100748.80
2022-08-10T18:34:20.580Z,100748.34
2022-08-10T18:36:50.774Z,100752.14
2022-08-10T18:39:26.000Z,100754.30
2022-08-10T18:42:00.623Z,100761.48
2022-08-10T18:44:38.368Z,100760.30
2022-08-10T18:47:12.650Z,100760.98
2022-08-10T18:49:54.493Z,100766.80
2022-08-10T18:52:27.417Z,100767.42
2022-08-10T18:55:14.005Z,100764.23
2022-08-10T18:58:10.485Z,100768.67
2022-08-10T19:00:55.780Z,100768.26
2022-08-10T19:03:53.748Z,100771.38
2022-08-10T19:06:43.059Z,100773.21
2022-08-10T19:09:46.219Z,100776.94
2022-08-10T19:12:31.762Z,100778.04
2022-08-10T19:15:11.249Z,100772.78
2022-08-10T19:18:06.818Z,100777.55
2022-08-10T19:20:41.306Z,100780.17
2022-08-10T19:23:26.856Z,100782.73
2022-08-10T19:26:32.868Z,100786.93
2022-08-10T19:29:04.412Z,100788.17
2022-08-10T19:31:44.840Z,100793.75
2022-08-10T19:34:38.098Z,100793.67
2022-08-10T19:37:15.809Z,100798.52
2022-08-10T19:39:58.885Z,100796.05
2022-08-10T19:42:33.915Z,100801.48
2022-08-10T19:45:56.117Z,100804.44
2022-08-10T19:48:18.747Z,100806.20
2022-08-10T19:50:55.648Z,100808.59
2022-08-10T19:53:31.232Z,100805.33
2022-08-10T19:56:33.164Z,100803.14
2022-08-10T19:59:08.895Z,100812.69
2022-08-10T20:01:55.444Z,100812.81
2022-08-10T20:04:32.113Z,100815.48
2022-08-10T20:07:15.414Z,100818.10
2022-08-10T20:09:51.366Z,100818.59
2022-08-10T20:12:39.485Z,100822.02
2022-08-10T20:15:15.416Z,100816.33
2022-08-10T20:17:55.257Z,100817.23
2022-08-10T20:20:32.394Z,100821.10
2022-08-10T20:23:10.868Z,100816.40
2022-08-10T20:25:42.194Z,100822.64
2022-08-10T20:28:18.691Z,100825.11
2022-08-10T20:30:51.316Z,100824.45
2022-08-10T20:33:27.831Z,100824.95
2022-08-10T20:36:02.085Z,100826.48
2022-08-10T20:38:43.534Z,100825.54
2022-08-10T20:41:22.022Z,100824.35
2022-08-10T20:44:03.431Z,100823.79
2022-08-10T20:46:40.289Z,100822.58
2022-08-10T20:49:22.148Z,100824.49
2022-08-10T20:51:59.447Z,100824.86
2022-08-10T20:54:33.760Z,100828.86
2022-08-10T20:57:54.384Z,100830.60
2022-08-10T21:00:23.518Z,100827.82
2022-08-10T21:03:15.969Z,100827.37
2022-08-10T21:06:08.488Z,100826.64
2022-08-10T21:08:50.385Z,100822.15
2022-08-10T21:11:34.898Z,100819.56
2022-08-10T21:14:20.132Z,100817.48
2022-08-10T21:17:11.870Z,100818.44
2022-08-10T21:20:14.818Z,100816.43
2022-08-10T21:22:46.345Z,100817.81
2022-08-10T21:25:19.014Z,100816.52
2022-08-10T21:28:16.661Z,100820.77
2022-08-10T21:31:16.262Z,100823.23
2022-08-10T21:34:09.467Z,100825.49
2022-08-10T21:36:50.834Z,100830.85
2022-08-10T21:39:24.644Z,100826.91
2022-08-10T21:42:39.797Z,100829.55
2022-08-10T21:45:47.508Z,100833.38
2022-08-10T21:48:57.695Z,100834.25
2022-08-10T21:55:11.106Z,100828.52
2022-08-10T21:58:05.853Z,100828.75
2022-08-10T22:00:57.786Z,100828.33
2022-08-10T22:03:44.314Z,100828.39
2022-08-10T22:06:32.135Z,100824.50
2022-08-10T22:09:24.136Z,100823.21
2022-08-10T22:12:24.847Z,100817.44
2022-08-10T22:16:03.200Z,100817.61
2022-08-10T22:18:45.320Z,100817.95
2022-08-10T22:22:04.696Z,100823.80
2022-08-10T22:25:16.564Z,100819.42
2022-08-10T22:28:15.709Z,100817.97
2022-08-10T22:31:29.131Z,100835.20
2022-08-10T22:31:31.202Z,100817.73
2022-08-10T22:34:32.022Z,100823.55
2022-08-10T22:37:38.929Z,100824.93
2022-08-10T22:40:30.891Z,100825.44
2022-08-10T22:43:35.393Z,100823.35
2022-08-10T22:46:31.566Z,100826.03
2022-08-10T22:48:59.160Z,100828.25
2022-08-10T22:51:34.665Z,100832.28
2022-08-10T22:54:30.729Z,100830.38
2022-08-10T22:57:20.407Z,100831.88
2022-08-10T22:59:49.126Z,100833.73
2022-08-10T23:02:30.079Z,100831.27
2022-08-10T23:05:05.494Z,100830.75
2022-08-10T23:07:41.452Z,100827.38
2022-08-10T23:10:14.143Z,100826.14
2022-08-10T23:12:47.676Z,100824.60
2022-08-10T23:15:40.691Z,100824.31
2022-08-10T23:18:32.658Z,100824.14
2022-08-10T23:21:02.135Z,100825.77
2022-08-10T23:23:38.598Z,100826.11
2022-08-10T23:26:07.435Z,100828.48
2022-08-10T23:29:05.300Z,100824.96
2022-08-10T23:32:01.016Z,100823.16
2022-08-10T23:34:23.640Z,100822.35
2022-08-10T23:36:53.084Z,100821.14
2022-08-10T23:39:29.586Z,100822.45
2022-08-10T23:42:07.262Z,100823.50
2022-08-10T23:44:43.778Z,100821.47
2022-08-10T23:47:14.097Z,100822.91
2022-08-10T23:49:43.953Z,100824.36
2022-08-10T23:52:15.235Z,100825.98
2022-08-10T23:54:44.393Z,100830.99
2022-08-10T23:57:16.652Z,100830.78
2022-08-10T23:59:53.559Z,100839.04
